Time;durP1;ratioP1;P1;durP2;ratioP2;P2;SDS_P1;SDS_P2;PMS_P1;PMS_P2;Temp;Humidity;BMP_temperature;BMP_pressure;BME280_temperature;BME280_humidity;BME280_pressure;Samples;Min_cycle;Max_cycle;Signal;HPM_P1;HPM_P2
2022/06/08 00:03:32;;;;;;;9.70;8.80;;;;;;;18.98;70.63;100051.86;3674496;75;21453;-82
2022/06/08 00:08:23;;;;;;;9.35;8.45;;;;;;;18.94;71.08;100057.24;3627932;75;21181;-82
2022/06/08 00:13:14;;;;;;;9.90;8.00;;;;;;;18.84;71.00;100061.45;3635048;77;21513;-82
2022/06/08 00:18:06;;;;;;;8.15;7.15;;;;;;;18.76;71.46;100080.97;3655042;76;20980;-82
2022/06/08 00:22:58;;;;;;;8.08;7.28;;;;;;;18.63;71.66;100078.66;3618987;77;20984;-82
2022/06/08 00:27:49;;;;;;;7.70;6.92;;;;;;;18.55;72.16;100072.75;3615967;75;20949;-85
2022/06/08 00:32:40;;;;;;;8.73;7.35;;;;;;;18.52;72.48;100072.81;3646964;75;21766;-86
2022/06/08 00:37:32;;;;;;;8.35;7.55;;;;;;;18.56;72.71;100077.09;3664224;75;21430;-86
2022/06/08 00:42:25;;;;;;;8.20;7.42;;;;;;;18.57;72.71;100073.56;3666724;75;20972;-86
2022/06/08 00:47:22;;;;;;;10.60;8.00;;;;;;;18.55;73.23;100079.33;3625738;75;21247;-82
2022/06/08 00:52:15;;;;;;;8.70;7.78;;;;;;;18.55;73.35;100081.11;3605930;76;21123;-85
2022/06/08 00:57:15;;;;;;;8.30;7.60;;;;;;;18.55;73.55;100086.38;3601377;76;21192;-86
2022/06/08 01:02:06;;;;;;;9.03;8.13;;;;;;;18.54;73.65;100088.12;3649135;75;21194;-85
2022/06/08 01:06:59;;;;;;;9.00;8.20;;;;;;;18.55;73.93;100096.44;3654412;75;21510;-85
2022/06/08 01:11:53;;;;;;;9.98;9.18;;;;;;;18.56;74.07;100088.94;3662382;75;20968;-83
2022/06/08 01:17:06;;;;;;;9.78;8.98;;;;;;;18.55;74.00;100092.49;3606654;76;20900;-86
2022/06/08 01:22:01;;;;;;;8.73;7.92;;;;;;;18.56;74.26;100093.34;3631960;75;21168;-87
2022/06/08 01:27:12;;;;;;;10.28;9.45;;;;;;;18.56;74.39;100079.72;3623807;76;21454;-86
2022/06/08 01:32:48;;;;;;;10.90;9.80;;;;;;;18.55;74.51;100053.00;3660141;76;21093;-82
2022/06/08 01:38:03;;;;;;;12.00;10.90;;;;;;;18.56;74.70;100036.28;3647265;76;20953;-87
2022/06/08 01:43:15;;;;;;;11.63;10.53;;;;;;;18.51;74.80;100015.83;3690818;76;22844;-86
2022/06/08 01:48:33;;;;;;;11.18;9.98;;;;;;;18.46;74.79;100004.09;3701031;75;21560;-86
2022/06/08 01:53:52;;;;;;;13.03;11.90;;;;;;;18.43;75.05;100000.69;3678699;75;21024;-86
2022/06/08 01:59:05;;;;;;;12.03;10.78;;;;;;;18.39;75.17;99992.47;3604900;75;22000;-86
2022/06/08 02:04:26;;;;;;;12.37;11.20;;;;;;;18.36;75.22;99972.80;3472631;80;20940;-85
2022/06/08 02:09:32;;;;;;;12.43;10.95;;;;;;;18.33;75.41;99961.04;3469332;80;21486;-85
2022/06/08 02:14:40;;;;;;;14.33;12.80;;;;;;;18.24;75.30;99964.34;3440219;80;21030;-84
2022/06/08 02:19:47;;;;;;;12.75;11.55;;;;;;;18.18;75.43;99964.48;3465096;80;21544;-85
2022/06/08 02:24:51;;;;;;;12.70;11.55;;;;;;;18.13;75.49;99971.63;3456062;80;20969;-84
2022/06/08 02:29:56;;;;;;;13.45;12.23;;;;;;;18.06;75.67;99971.38;3481116;80;20975;-85
2022/06/08 02:34:47;;;;;;;13.72;12.53;;;;;;;18.02;75.80;99965.80;3494632;80;21071;-85
2022/06/08 02:39:53;;;;;;;13.48;12.35;;;;;;;18.00;75.86;99962.34;3518858;75;22855;-85
2022/06/08 02:44:48;;;;;;;13.88;12.60;;;;;;;17.97;75.95;99955.38;3614619;76;21936;-84
2022/06/08 02:49:41;;;;;;;13.20;12.05;;;;;;;17.94;76.13;99955.48;3615126;76;21067;-84
2022/06/08 02:54:34;;;;;;;13.70;12.35;;;;;;;17.91;76.22;99955.55;3642643;75;20962;-84
2022/06/08 02:59:38;;;;;;;14.05;12.90;;;;;;;17.87;76.36;99952.14;3592264;76;21024;-84
2022/06/08 03:04:42;;;;;;;13.68;12.37;;;;;;;17.87;76.38;99957.39;3657610;76;21557;-84
2022/06/08 03:09:34;;;;;;;14.15;12.95;;;;;;;17.85;76.51;99961.83;3622374;75;21457;-84
2022/06/08 03:14:28;;;;;;;13.70;12.50;;;;;;;17.79;76.58;99955.82;3593977;75;21019;-84
2022/06/08 03:19:21;;;;;;;14.53;13.10;;;;;;;17.72;76.58;99969.56;3655906;76;21437;-84
2022/06/08 03:24:13;;;;;;;13.60;12.40;;;;;;;17.70;76.74;99972.68;3590412;76;21254;-84
2022/06/08 03:29:05;;;;;;;15.45;14.10;;;;;;;17.70;76.91;99975.31;3592697;76;21139;-84
2022/06/08 03:33:56;;;;;;;15.32;14.00;;;;;;;17.64;77.14;99982.90;3595675;76;21594;-84
2022/06/08 03:38:48;;;;;;;15.25;13.80;;;;;;;17.67;77.16;99988.52;3653348;75;21023;-84
2022/06/08 03:43:39;;;;;;;15.88;14.47;;;;;;;17.70;77.24;99981.42;3660288;75;20967;-84
2022/06/08 03:48:33;;;;;;;15.88;14.58;;;;;;;17.74;77.13;99984.84;3625248;75;21100;-84
2022/06/08 03:53:29;;;;;;;16.27;14.87;;;;;;;17.80;77.21;99996.55;3642124;75;21497;-84
2022/06/08 03:58:21;;;;;;;16.73;15.32;;;;;;;17.91;77.18;99976.59;3689594;75;20931;-84
2022/06/08 04:03:14;;;;;;;15.15;13.72;;;;;;;17.91;77.18;99976.59;3597379;77;21965;-84
2022/06/08 04:08:06;;;;;;;16.20;14.80;;;;;;;18.05;77.02;99993.34;3619112;75;21368;-84
2022/06/08 04:12:59;;;;;;;15.40;13.93;;;;;;;18.13;76.97;100003.20;3658881;75;21426;-84
2022/06/08 04:17:51;;;;;;;16.07;14.65;;;;;;;18.25;76.89;100009.47;3583126;77;21250;-84
2022/06/08 04:22:44;;;;;;;15.53;14.05;;;;;;;18.39;76.68;100025.37;3665012;75;21264;-84
2022/06/08 04:27:35;;;;;;;15.60;14.00;;;;;;;18.49;76.56;100025.52;3603895;75;20998;-84
2022/06/08 04:32:27;;;;;;;16.02;14.68;;;;;;;18.62;76.58;100033.50;3637094;75;20893;-84
2022/06/08 04:37:18;;;;;;;15.43;14.00;;;;;;;18.79;76.55;100033.48;3664417;75;21530;-84
2022/06/08 04:42:11;;;;;;;15.20;13.62;;;;;;;18.91;76.27;100031.87;3629107;75;21552;-84
2022/06/08 04:47:05;;;;;;;15.20;13.83;;;;;;;19.00;76.25;100026.33;3636035;75;22065;-84
2022/06/08 04:51:58;;;;;;;15.43;14.13;;;;;;;19.08;75.99;100025.25;3663131;75;20965;-84
2022/06/08 04:56:49;;;;;;;14.90;13.60;;;;;;;19.13;76.09;100033.87;3638092;75;20987;-84
2022/06/08 05:01:41;;;;;;;13.03;11.88;;;;;;;19.09;75.50;100033.57;3680779;75;20979;-84
2022/06/08 05:06:34;;;;;;;13.65;12.50;;;;;;;19.03;75.53;100032.84;3586256;76;21555;-84
2022/06/08 05:11:26;;;;;;;13.75;12.35;;;;;;;19.03;75.80;100039.89;3633292;75;20935;-84
2022/06/08 05:16:18;;;;;;;13.03;11.90;;;;;;;18.99;75.67;100037.80;3667404;75;20920;-84
2022/06/08 05:21:11;;;;;;;14.53;13.20;;;;;;;19.01;75.88;100045.62;3629836;77;20944;-84
2022/06/08 05:26:04;;;;;;;13.40;12.30;;;;;;;19.11;75.60;100040.97;3573548;77;20924;-84
2022/06/08 05:30:56;;;;;;;14.03;12.82;;;;;;;19.17;75.64;100030.23;3618366;76;21461;-84
2022/06/08 05:35:49;;;;;;;12.65;11.60;;;;;;;19.17;75.62;100027.60;3661753;76;21058;-84
2022/06/08 05:40:41;;;;;;;12.25;11.05;;;;;;;19.28;75.46;100026.85;3656245;75;20968;-84
2022/06/08 05:45:34;;;;;;;12.88;11.78;;;;;;;19.33;75.35;100030.19;3630330;75;20928;-83
2022/06/08 05:50:26;;;;;;;12.03;10.95;;;;;;;19.39;75.18;100038.39;3583522;75;20901;-83
2022/06/08 05:55:20;;;;;;;10.28;9.48;;;;;;;19.59;74.89;100047.00;3627841;75;21868;-83
2022/06/08 06:00:17;;;;;;;9.88;9.08;;;;;;;19.75;74.61;100046.11;3605941;75;20972;-83
2022/06/08 06:05:14;;;;;;;8.18;7.47;;;;;;;19.97;74.18;100046.27;3617044;76;21451;-82
2022/06/08 06:10:06;;;;;;;7.80;7.20;;;;;;;20.27;73.72;100041.75;3612471;75;21183;-82
2022/06/08 06:15:00;;;;;;;6.50;5.90;;;;;;;20.72;72.81;100040.23;3610297;77;21212;-82
2022/06/08 06:19:52;;;;;;;6.33;5.78;;;;;;;21.32;72.05;100045.50;3626438;77;21153;-82
2022/06/08 06:24:45;;;;;;;5.72;5.30;;;;;;;21.26;71.11;100044.39;3640162;75;20953;-82
2022/06/08 06:29:57;;;;;;;5.67;5.28;;;;;;;21.11;70.98;100044.99;3511177;78;20966;-82
2022/06/08 06:34:50;;;;;;;6.08;5.55;;;;;;;21.12;71.32;100045.38;3514485;78;20983;-82
2022/06/08 06:39:43;;;;;;;5.47;4.97;;;;;;;21.20;71.21;100038.50;3492190;78;21023;-82
2022/06/08 06:44:44;;;;;;;4.97;4.58;;;;;;;21.48;70.63;100035.67;3543829;78;21135;-82
2022/06/08 06:49:38;;;;;;;5.00;4.50;;;;;;;21.62;69.78;100030.73;3509877;78;21037;-82
2022/06/08 06:54:31;;;;;;;5.10;4.80;;;;;;;21.56;69.36;100029.63;3520972;78;20963;-83
2022/06/08 06:59:23;;;;;;;5.05;4.65;;;;;;;21.53;69.79;100035.50;3582392;75;20931;-82
2022/06/08 07:04:18;;;;;;;5.47;5.03;;;;;;;21.49;69.31;100040.05;3584081;75;21560;-84
2022/06/08 07:09:10;;;;;;;5.23;4.73;;;;;;;21.58;68.50;100033.55;3643535;76;21881;-85
2022/06/08 07:14:14;;;;;;;5.83;4.97;;;;;;;21.88;68.43;100034.09;3632120;75;20947;-84
2022/06/08 07:19:08;;;;;;;5.45;5.05;;;;;;;22.11;67.84;100036.27;3637028;75;20919;-85
2022/06/08 07:23:59;;;;;;;5.12;4.62;;;;;;;22.32;67.47;100027.45;3639267;75;21972;-84
2022/06/08 07:28:55;;;;;;;4.92;4.45;;;;;;;22.60;66.82;100025.77;3623535;75;20897;-81
2022/06/08 07:33:46;;;;;;;4.63;4.33;;;;;;;22.64;66.00;100029.15;3606355;75;21009;-87
2022/06/08 07:38:38;;;;;;;5.65;5.22;;;;;;;22.59;65.59;100027.16;3610376;76;22638;-83
2022/06/08 07:43:29;;;;;;;4.53;4.12;;;;;;;23.01;64.46;100024.86;3625556;75;21084;-85
2022/06/08 07:53:30;;;;;;;5.25;4.85;;;;;;;24.65;61.60;100024.02;3618905;75;20987;-84
2022/06/08 07:58:21;;;;;;;4.45;4.05;;;;;;;26.66;58.33;100039.42;3603883;76;22676;-86
2022/06/08 08:03:17;;;;;;;4.67;4.35;;;;;;;28.20;56.09;100028.30;3598686;76;21023;-84
2022/06/08 08:08:09;;;;;;;5.35;4.90;;;;;;;26.95;56.63;100029.62;3640699;75;20978;-85
2022/06/08 08:13:00;;;;;;;5.12;4.72;;;;;;;25.95;57.49;100039.57;3598915;75;20982;-87
2022/06/08 08:17:52;;;;;;;5.22;4.83;;;;;;;25.29;57.75;100036.16;3615201;77;20998;-86
2022/06/08 08:22:46;;;;;;;4.95;4.55;;;;;;;25.13;57.76;100040.09;3621887;76;21320;-88
2022/06/08 08:32:45;;;;;;;4.85;4.35;;;;;;;27.10;54.78;100030.01;3633641;77;22920;-90
2022/06/08 08:37:36;;;;;;;5.28;3.83;;;;;;;27.85;53.29;100030.13;3567792;79;21389;-81
2022/06/08 08:42:28;;;;;;;3.77;3.47;;;;;;;28.03;53.02;100034.30;3509430;79;21473;-81
2022/06/08 08:47:57;;;;;;;4.28;3.62;;;;;;;27.12;53.23;100032.58;3493828;80;20998;-82
2022/06/08 08:53:03;;;;;;;3.92;3.62;;;;;;;27.50;53.67;100027.97;3529646;80;20976;-82
2022/06/08 08:58:18;;;;;;;3.93;3.63;;;;;;;26.76;53.41;100033.44;3503465;79;20937;-83
2022/06/08 09:03:42;;;;;;;3.55;3.35;;;;;;;27.01;53.03;100023.44;3497602;80;20941;-82
2022/06/08 09:08:33;;;;;;;3.55;3.35;;;;;;;27.27;51.69;100038.78;3560673;79;21023;-82
2022/06/08 09:13:48;;;;;;;4.20;3.40;;;;;;;26.67;52.81;100033.13;3511349;80;20935;-81
2022/06/08 09:18:41;;;;;;;3.22;2.92;;;;;;;26.63;52.69;100032.00;3499857;80;20963;-81
2022/06/08 09:23:41;;;;;;;3.27;2.98;;;;;;;26.37;52.37;100031.34;3492845;80;20990;-82
2022/06/08 09:28:33;;;;;;;4.30;3.05;;;;;;;26.05;52.50;100024.78;3505096;80;21177;-82
2022/06/08 09:33:36;;;;;;;3.22;3.02;;;;;;;25.69;53.70;100031.25;3471649;80;20992;-82
2022/06/08 09:38:33;;;;;;;4.28;3.87;;;;;;;25.30;53.98;100020.56;3489789;80;21980;-83
2022/06/08 09:44:07;;;;;;;3.45;3.15;;;;;;;25.54;53.68;100029.44;3490633;80;21439;-81
2022/06/08 09:54:33;;;;;;;2.65;2.55;;;;;;;28.29;50.11;100019.16;3497105;79;21483;-84
2022/06/08 09:59:54;;;;;;;3.02;2.83;;;;;;;27.82;50.66;100022.34;3470807;80;28956;-82
2022/06/08 10:05:01;;;;;;;3.72;3.52;;;;;;;26.72;51.44;100029.25;3502603;80;20955;-82
2022/06/08 10:10:04;;;;;;;3.42;3.22;;;;;;;25.87;52.03;100033.33;3490897;79;20977;-82
2022/06/08 10:15:06;;;;;;;4.47;4.08;;;;;;;25.35;53.22;100028.30;3481719;80;20976;-81
2022/06/08 10:20:19;;;;;;;5.50;3.42;;;;;;;24.78;54.23;100028.20;3470923;80;22851;-80
2022/06/08 10:25:18;;;;;;;10.05;3.55;;;;;;;24.20;55.00;100024.54;3522513;80;21019;-82
2022/06/08 10:30:35;;;;;;;4.08;3.60;;;;;;;23.85;55.82;100023.20;3534032;80;21449;-80
2022/06/08 10:35:38;;;;;;;4.35;3.95;;;;;;;23.77;56.09;100027.53;3468610;80;22191;-81
2022/06/08 10:40:37;;;;;;;4.80;3.83;;;;;;;23.93;56.01;100024.54;3462868;80;20934;-80
2022/06/08 10:45:36;;;;;;;3.87;3.58;;;;;;;24.29;55.59;100026.28;3489367;80;21220;-81
2022/06/08 10:50:37;;;;;;;4.35;3.92;;;;;;;24.91;55.37;100019.09;3472397;80;21012;-80
2022/06/08 10:55:37;;;;;;;6.80;5.03;;;;;;;26.86;53.38;100008.86;3503921;80;21429;-81
2022/06/08 11:00:58;;;;;;;4.10;3.80;;;;;;;28.75;50.67;100008.97;3510055;80;20976;-81
2022/06/08 11:05:50;;;;;;;3.80;3.47;;;;;;;28.36;50.37;100002.23;3514647;80;21736;-81
2022/06/08 11:10:51;;;;;;;4.20;3.85;;;;;;;27.72;49.95;100000.26;3484998;80;21141;-81
2022/06/08 11:15:51;;;;;;;4.72;4.25;;;;;;;26.83;51.07;100003.26;3495534;80;20932;-81
2022/06/08 11:21:16;;;;;;;4.47;4.17;;;;;;;26.48;51.81;99999.56;3524672;80;21022;-81
2022/06/08 11:26:30;;;;;;;4.67;4.28;;;;;;;26.62;51.20;100000.09;3515195;80;20961;-81
2022/06/08 11:31:33;;;;;;;5.45;4.33;;;;;;;26.41;51.58;100004.89;3538833;80;21003;-80
2022/06/08 11:36:31;;;;;;;7.65;5.25;;;;;;;25.88;52.11;100014.61;3510406;80;21267;-81
2022/06/08 11:41:37;;;;;;;6.05;5.55;;;;;;;25.50;52.71;100007.47;3477968;80;20976;-80
2022/06/08 11:46:39;;;;;;;4.75;4.35;;;;;;;25.31;53.08;99997.02;3483928;80;21035;-80
2022/06/08 11:51:36;;;;;;;5.12;4.35;;;;;;;25.14;53.24;99998.39;3482782;80;21479;-80
2022/06/08 11:56:39;;;;;;;;;;;;;;;25.08;53.09;99994.27;3478392;80;20948;-81
2022/06/08 12:01:51;;;;;;;5.85;4.97;;;;;;;24.94;53.78;100005.65;3507690;80;21093;-81
2022/06/08 12:06:44;;;;;;;5.00;4.60;;;;;;;24.74;53.67;99998.75;3489314;80;20936;-80
2022/06/08 12:11:39;;;;;;;4.75;4.35;;;;;;;24.49;54.09;99992.52;3511113;80;21454;-81
2022/06/08 12:16:35;;;;;;;5.08;4.67;;;;;;;24.27;54.33;99997.61;3510004;80;20960;-80
2022/06/08 12:21:37;;;;;;;4.97;4.58;;;;;;;24.08;55.06;99994.17;3464349;80;20944;-80
2022/06/08 12:26:49;;;;;;;6.17;4.65;;;;;;;23.94;55.02;99991.73;3492950;80;21497;-80
2022/06/08 12:31:40;;;;;;;5.33;4.72;;;;;;;23.82;55.38;99990.16;3475320;80;21044;-80
2022/06/08 12:36:33;;;;;;;5.70;5.28;;;;;;;23.63;56.98;99990.16;3483523;80;20957;-80
2022/06/08 12:41:47;;;;;;;4.90;4.58;;;;;;;23.50;57.46;99980.17;3458244;80;21303;-80
2022/06/08 12:46:42;;;;;;;7.08;5.12;;;;;;;23.51;58.42;99981.88;3384355;83;21002;-80
2022/06/08 12:51:53;;;;;;;6.30;5.70;;;;;;;23.52;58.29;99984.05;3398082;83;21607;-80
2022/06/08 12:56:51;;;;;;;6.03;5.50;;;;;;;23.44;57.88;99987.55;3356735;83;21465;-80
2022/06/08 13:01:44;;;;;;;6.47;5.87;;;;;;;23.37;57.73;99990.96;3399570;82;20995;-80
2022/06/08 13:06:35;;;;;;;6.30;5.70;;;;;;;23.45;57.71;99972.89;3394449;83;21029;-80
2022/06/08 13:11:27;;;;;;;6.47;5.97;;;;;;;23.76;57.58;99979.34;3352357;83;20982;-81
2022/06/08 13:16:23;;;;;;;9.38;6.22;;;;;;;24.23;57.01;99980.09;3388098;83;21007;-80
2022/06/08 13:21:15;;;;;;;8.18;5.72;;;;;;;24.53;56.40;99987.45;3436346;80;20916;-82
2022/06/08 13:26:14;;;;;;;8.30;6.08;;;;;;;24.71;56.08;99977.64;3458010;80;20963;-85
2022/06/08 13:31:09;;;;;;;5.87;5.37;;;;;;;24.96;55.49;99975.84;3508405;80;21066;-88
2022/06/08 13:36:01;;;;;;;5.97;5.42;;;;;;;25.04;55.19;99976.29;3508591;80;21074;-85
2022/06/08 13:40:52;;;;;;;7.97;6.12;;;;;;;24.85;55.19;99981.74;3493921;80;21352;-85
2022/06/08 13:45:44;;;;;;;6.65;5.72;;;;;;;24.54;55.56;99980.73;3495008;80;21575;-90
2022/06/08 13:50:39;;;;;;;4.75;4.37;;;;;;;24.23;55.92;99985.88;3489718;80;21568;-82
2022/06/08 13:55:35;;;;;;;4.93;4.57;;;;;;;23.88;56.40;99986.73;3488170;80;20932;-86
2022/06/08 14:00:28;;;;;;;5.40;5.00;;;;;;;23.60;56.76;99998.66;3524560;80;20974;-82
2022/06/08 14:12:59;;;;;;;5.25;4.85;;;;;;;23.31;57.10;100001.88;3511913;80;21037;-83
2022/06/08 14:15:38;;;;;;;6.65;6.03;;;;;;;22.81;59.00;100013.37;3506436;80;21396;-92
2022/06/08 14:20:39;;;;;;;8.13;7.33;;;;;;;22.55;59.89;100011.02;3427230;80;21249;-90
2022/06/08 14:25:32;;;;;;;14.23;8.93;;;;;;;22.27;60.95;100007.78;3467148;80;20967;-86
2022/06/08 14:30:25;;;;;;;8.85;8.15;;;;;;;22.03;62.00;99996.39;3432304;80;21366;-87
2022/06/08 14:35:21;;;;;;;10.65;9.65;;;;;;;21.75;63.45;99982.59;3507943;80;21534;-87
2022/06/08 14:40:27;;;;;;;36.08;28.00;;;;;;;21.46;64.49;99955.53;3490613;80;20971;-87
2022/06/08 14:45:20;;;;;;;12.68;11.28;;;;;;;21.28;65.17;99936.83;3465533;80;21470;-86
2022/06/08 14:50:18;;;;;;;15.83;14.33;;;;;;;21.18;66.51;99943.87;3473655;80;21007;-87
2022/06/08 15:00:24;;;;;;;16.02;14.75;;;;;;;21.33;66.94;99915.02;3496010;80;20988;-89
2022/06/08 15:05:18;;;;;;;15.05;10.78;;;;;;;21.54;67.68;99883.38;3491711;80;20972;-90
2022/06/08 15:10:12;;;;;;;13.88;10.25;;;;;;;21.57;67.48;99867.39;3468437;80;20955;-88
2022/06/08 15:15:15;;;;;;;8.13;7.28;;;;;;;21.58;67.79;99874.84;3466536;80;21022;-89
2022/06/08 15:20:21;;;;;;;8.75;7.87;;;;;;;21.47;67.75;99873.97;3498186;80;21457;-87
2022/06/08 15:25:13;;;;;;;8.63;7.90;;;;;;;21.46;68.43;99878.85;3526645;80;20956;-90
2022/06/08 15:30:08;;;;;;;8.53;7.92;;;;;;;21.54;68.89;99880.73;3479634;80;20987;-85
2022/06/08 15:34:59;;;;;;;7.15;6.37;;;;;;;21.83;68.73;99874.66;3477428;80;21018;-85
2022/06/08 15:39:51;;;;;;;6.97;6.28;;;;;;;22.00;67.88;99872.16;3506699;80;21062;-86
2022/06/08 15:44:44;;;;;;;7.45;6.53;;;;;;;22.06;68.26;99874.52;3469572;80;21161;-85
2022/06/08 15:49:38;;;;;;;7.55;6.95;;;;;;;22.03;67.99;99868.02;3476617;80;21003;-89
2022/06/08 15:54:35;;;;;;;7.83;7.12;;;;;;;22.06;68.72;99874.52;3503614;80;21779;-85
2022/06/08 15:59:38;;;;;;;7.87;6.55;;;;;;;21.90;68.13;99876.12;3451532;80;20971;-85
2022/06/08 16:04:29;;;;;;;7.00;6.50;;;;;;;21.71;68.27;99883.97;3502722;80;20979;-85
2022/06/08 16:09:21;;;;;;;6.92;6.28;;;;;;;21.67;68.72;99904.41;3466922;80;21540;-85
2022/06/08 16:14:14;;;;;;;8.28;7.47;;;;;;;21.72;68.90;99912.16;3497526;80;20932;-85
2022/06/08 16:19:06;;;;;;;6.65;6.15;;;;;;;21.74;69.07;99912.95;3501469;80;20955;-85
2022/06/08 16:23:58;;;;;;;7.87;7.20;;;;;;;21.72;68.83;99919.24;3528042;80;20924;-85
2022/06/08 16:28:50;;;;;;;9.15;8.23;;;;;;;21.65;69.42;99920.80;3473384;80;20979;-85
2022/06/08 16:33:42;;;;;;;7.12;6.58;;;;;;;21.65;69.52;99923.92;3542504;78;21176;-85
2022/06/08 16:38:36;;;;;;;8.05;7.35;;;;;;;21.68;69.58;99932.59;3514808;80;20937;-85
2022/06/08 16:43:29;;;;;;;10.98;7.40;;;;;;;21.82;69.84;99929.81;3462204;80;20948;-85
2022/06/08 16:48:21;;;;;;;8.03;7.33;;;;;;;21.85;69.64;99933.66;3528409;79;21494;-85
2022/06/08 16:53:13;;;;;;;8.30;7.70;;;;;;;21.80;69.76;99935.20;3518692;79;20975;-85
2022/06/08 17:03:17;;;;;;;9.75;8.85;;;;;;;21.82;69.61;99932.46;3542858;79;21311;-85
2022/06/08 17:08:10;;;;;;;10.88;9.98;;;;;;;21.87;69.55;99932.69;3490508;79;21002;-85
2022/06/08 17:13:02;;;;;;;7.78;7.08;;;;;;;22.03;69.42;99938.16;3513227;79;20979;-85
2022/06/08 17:17:54;;;;;;;6.55;5.95;;;;;;;21.97;69.45;99937.59;3561786;79;21018;-85
2022/06/08 17:22:46;;;;;;;6.12;5.55;;;;;;;21.80;69.32;99943.58;3530568;79;21002;-85
2022/06/08 17:27:43;;;;;;;7.53;6.78;;;;;;;21.62;69.02;99936.83;3495464;79;21010;-85
2022/06/08 17:32:36;;;;;;;8.58;7.67;;;;;;;21.55;69.29;99934.00;3434419;79;21009;-85
2022/06/08 17:37:28;;;;;;;13.22;11.93;;;;;;;21.44;69.39;99925.63;3476624;81;20917;-83
2022/06/08 17:42:25;;;;;;;6.30;5.80;;;;;;;21.30;69.99;99917.80;3468861;81;21175;-84
2022/06/08 17:47:16;;;;;;;6.05;5.55;;;;;;;21.16;70.29;99932.03;3484795;81;20936;-87
2022/06/08 17:52:09;;;;;;;6.37;5.90;;;;;;;21.05;70.67;99936.84;3497058;81;21031;-84
2022/06/08 17:57:01;;;;;;;6.30;5.80;;;;;;;20.99;71.10;99941.06;3462247;81;20938;-84
2022/06/08 18:01:55;;;;;;;6.22;5.72;;;;;;;20.91;71.56;99940.90;3479454;81;21538;-84
2022/06/08 18:06:47;;;;;;;7.45;6.87;;;;;;;20.81;71.83;99944.80;3466374;81;21173;-84
2022/06/08 18:11:57;;;;;;;6.70;6.03;;;;;;;20.67;72.16;99941.81;3458307;81;21400;-84
2022/06/08 18:16:49;;;;;;;7.00;6.37;;;;;;;20.46;72.23;99944.30;3471519;81;20981;-84
2022/06/08 18:21:41;;;;;;;6.67;6.08;;;;;;;20.29;72.62;99945.36;3490610;81;20999;-84
2022/06/08 18:26:35;;;;;;;6.90;6.30;;;;;;;20.14;72.98;99929.62;3457279;81;20968;-84
2022/06/08 18:31:27;;;;;;;7.37;6.75;;;;;;;19.94;73.03;99918.41;3463744;80;20994;-84
2022/06/08 18:36:20;;;;;;;6.97;6.35;;;;;;;19.75;73.42;99924.32;3504961;79;21151;-84
2022/06/08 18:41:19;;;;;;;6.70;6.10;;;;;;;19.50;73.62;99917.65;3474790;81;21011;-84
2022/06/08 18:46:11;;;;;;;7.75;6.85;;;;;;;19.39;74.02;99922.41;3509290;79;20941;-84
2022/06/08 18:51:06;;;;;;;6.75;6.25;;;;;;;19.33;74.45;99921.27;3480541;80;20995;-85
2022/06/08 18:56:01;;;;;;;7.25;6.55;;;;;;;19.22;74.37;99918.52;3432769;80;21353;-84
2022/06/08 19:00:55;;;;;;;7.33;6.72;;;;;;;19.09;74.45;99917.19;3475782;79;21727;-84
2022/06/08 19:05:49;;;;;;;8.10;7.50;;;;;;;18.99;74.60;99921.89;3447060;79;20998;-84
2022/06/08 19:10:42;;;;;;;8.95;8.18;;;;;;;18.93;75.02;99929.11;3474752;80;21038;-84
2022/06/08 19:15:37;;;;;;;7.65;7.05;;;;;;;18.87;75.14;99935.42;3402383;79;21032;-84
2022/06/08 19:20:41;;;;;;;9.18;7.97;;;;;;;18.77;75.14;99935.25;3479385;80;20914;-83
2022/06/08 19:25:36;;;;;;;9.65;8.95;;;;;;;18.72;75.27;99943.73;3381293;82;21292;-80
2022/06/08 19:30:41;;;;;;;9.40;8.60;;;;;;;18.62;75.24;99939.19;3422756;81;20990;-83
2022/06/08 19:35:23;;;;;;;8.25;7.47;;;;;;;18.57;75.44;99941.09;3476291;79;20978;-83
2022/06/08 19:40:16;;;;;;;8.40;7.70;;;;;;;18.48;75.51;99946.16;3420942;79;21049;-83
2022/06/08 19:45:09;;;;;;;6.58;6.15;;;;;;;18.41;75.46;99955.13;3483504;79;21764;-83
2022/06/08 19:50:03;;;;;;;7.92;7.20;;;;;;;18.31;75.23;99951.86;3400834;79;21210;-83
2022/06/08 19:54:57;;;;;;;8.48;7.78;;;;;;;18.23;75.43;99940.23;3410299;79;20985;-83
2022/06/08 19:59:51;;;;;;;8.33;7.25;;;;;;;18.18;75.49;99946.08;3460318;79;21336;-83
2022/06/08 20:04:43;;;;;;;9.48;8.75;;;;;;;18.14;75.51;99936.55;3443243;79;20987;-83
2022/06/08 20:09:36;;;;;;;8.38;7.78;;;;;;;18.07;75.70;99942.41;3467284;81;20990;-83
2022/06/08 20:14:29;;;;;;;7.78;7.10;;;;;;;18.03;75.90;99946.50;3475043;81;21445;-83
2022/06/08 20:19:25;;;;;;;8.33;7.65;;;;;;;17.96;75.64;99951.05;3459672;81;21571;-83
2022/06/08 20:24:21;;;;;;;7.65;6.97;;;;;;;17.90;75.92;99956.44;3430368;79;21060;-83
2022/06/08 20:29:13;;;;;;;8.78;8.08;;;;;;;17.84;75.83;99960.06;3465571;79;21513;-83
2022/06/08 20:34:08;;;;;;;9.60;8.70;;;;;;;17.79;76.08;99959.30;3521485;78;20988;-83
2022/06/08 20:39:01;;;;;;;9.95;8.70;;;;;;;17.62;75.73;99951.00;3435224;79;21487;-82
2022/06/08 20:43:52;;;;;;;8.30;7.70;;;;;;;17.58;76.28;99962.46;3465810;79;21023;-84
2022/06/08 20:48:46;;;;;;;9.85;9.05;;;;;;;17.51;76.08;99965.25;3444178;80;21008;-81
2022/06/08 20:53:38;;;;;;;9.35;8.55;;;;;;;17.46;76.30;99960.55;3524330;78;21588;-81
2022/06/08 20:58:31;;;;;;;8.90;8.15;;;;;;;17.43;76.33;99953.19;3502355;79;22125;-81
2022/06/08 21:03:29;;;;;;;8.50;7.80;;;;;;;17.44;76.51;99956.24;3500150;79;21857;-80
2022/06/08 21:08:23;;;;;;;9.78;8.85;;;;;;;17.43;76.55;99955.36;3516098;79;20979;-80
2022/06/08 21:13:17;;;;;;;8.93;8.10;;;;;;;17.43;76.67;99948.78;3533319;79;20983;-80
2022/06/08 21:18:09;;;;;;;9.38;8.53;;;;;;;17.40;76.72;99943.62;3492741;78;21524;-80
2022/06/08 21:23:01;;;;;;;10.08;9.18;;;;;;;17.36;76.84;99941.09;3488590;78;20973;-80
2022/06/08 21:27:58;;;;;;;9.88;9.00;;;;;;;17.30;76.84;99949.52;3565334;78;21063;-80
2022/06/08 21:32:49;;;;;;;9.80;8.93;;;;;;;17.27;77.01;99948.73;3502392;79;21507;-80
2022/06/08 21:37:43;;;;;;;10.28;9.28;;;;;;;17.23;77.10;99948.39;3501893;80;20973;-80
2022/06/08 21:42:35;;;;;;;9.45;8.58;;;;;;;17.21;77.17;99942.31;3487341;80;20960;-80
2022/06/08 21:47:26;;;;;;;9.90;9.10;;;;;;;17.22;77.29;99936.14;3468242;80;22120;-81
2022/06/08 21:52:19;;;;;;;11.10;10.03;;;;;;;17.17;77.18;99938.01;3464011;80;21018;-81
2022/06/08 21:57:10;;;;;;;10.25;9.35;;;;;;;17.13;77.45;99936.79;3489247;80;20968;-80
2022/06/08 22:02:02;;;;;;;9.45;8.65;;;;;;;17.15;77.55;99934.09;3441009;80;21081;-80
2022/06/08 22:06:55;;;;;;;10.82;9.83;;;;;;;17.13;77.27;99926.28;3495868;80;21128;-81
2022/06/08 22:11:46;;;;;;;9.80;9.03;;;;;;;17.08;77.46;99909.76;3457662;80;20991;-81
2022/06/08 22:16:38;;;;;;;10.10;9.30;;;;;;;17.06;77.20;99905.00;3525906;80;21531;-81
2022/06/08 22:21:30;;;;;;;10.20;9.33;;;;;;;17.01;77.38;99904.23;3459766;80;21272;-81
2022/06/08 22:26:25;;;;;;;11.35;10.35;;;;;;;16.98;77.47;99888.53;3452183;80;21493;-81
2022/06/08 22:32:05;;;;;;;10.48;9.53;;;;;;;16.96;77.54;99891.65;3477550;79;20973;-81
2022/06/08 22:36:57;;;;;;;10.50;9.60;;;;;;;16.92;77.34;99873.79;3483776;79;20968;-81
2022/06/08 22:41:48;;;;;;;9.90;9.10;;;;;;;16.88;77.69;99867.31;3501964;80;21510;-81
2022/06/08 22:46:40;;;;;;;9.70;8.90;;;;;;;16.85;77.69;99867.41;3520755;79;21086;-81
2022/06/08 22:51:33;;;;;;;11.65;10.68;;;;;;;16.83;77.58;99870.45;3513334;79;21020;-81
2022/06/08 22:56:24;;;;;;;12.90;11.90;;;;;;;16.82;77.93;99875.31;3486796;80;21595;-81
2022/06/08 23:01:16;;;;;;;10.58;9.58;;;;;;;16.83;78.14;99878.33;3473518;80;20979;-81
2022/06/08 23:06:07;;;;;;;11.83;10.72;;;;;;;16.81;78.28;99880.13;3499710;80;21508;-80
2022/06/08 23:21:19;;;;;;;11.15;10.05;;;;;;;16.68;77.98;99885.64;3475721;80;21288;-83
2022/06/08 23:26:11;;;;;;;9.53;8.63;;;;;;;16.62;78.09;99883.16;3473188;80;20952;-83
2022/06/08 23:31:02;;;;;;;9.88;8.95;;;;;;;16.56;78.22;99869.73;3452227;80;21570;-84
2022/06/08 23:35:54;;;;;;;10.40;9.30;;;;;;;16.55;78.44;99864.51;3517805;79;21028;-84
2022/06/08 23:40:45;;;;;;;10.45;9.45;;;;;;;16.52;78.22;99854.92;3505565;80;21501;-82
2022/06/08 23:45:36;;;;;;;10.60;9.60;;;;;;;16.52;78.48;99851.45;3482129;79;21646;-82